Terminal Aerodrome Forecast
Issued by NWS

Home | Current Version | Previous Version | Text Only | Print | Product List | Glossary On
Versions: 1 2 3 4 5 6 7 8 9 10 11 12 13 14 15 16 17 18 19 20 21 22
739
FTUS41 KGYX 131132 CCA
TAFHIE
TAF COR
KHIE 131132Z 1312/1412 29005KT 3SM -SHSN BR OVC025
      TEMPO 1312/1315 1 1/2SM -SHSN BKN012 OVC025
     FM131500 30008G16KT 5SM -SHSN BKN020 OVC035
     FM131900 30012G22KT P6SM SCT025 OVC040
     FM140000 30010KT P6SM BKN040 BKN070=

USA.gov is the U.S. government's official web portal to all federal, state and local government web resources and services.